sensor_id;sensor_type;location;lat;lon;timestamp;pressure;altitude;pressure_sealevel;temperature;humidity
79463;BME280;68931;47.286;18.756;2023-11-18T00:00:13;100608.72;;;3.84;79.12
79463;BME280;68931;47.286;18.756;2023-11-18T00:00:48;100606.81;;;3.89;79.66
79463;BME280;68931;47.286;18.756;2023-11-18T00:01:20;100620.50;;;3.95;79.20
79463;BME280;68931;47.286;18.756;2023-11-18T00:01:55;100606.94;;;3.86;79.24
79463;BME280;68931;47.286;18.756;2023-11-18T00:02:27;100612.00;;;3.89;79.39
79463;BME280;68931;47.286;18.756;2023-11-18T00:03:07;100610.53;;;3.80;80.16
79463;BME280;68931;47.286;18.756;2023-11-18T00:03:39;100606.84;;;3.87;79.34
79463;BME280;68931;47.286;18.756;2023-11-18T00:04:14;100620.66;;;3.89;79.37
79463;BME280;68931;47.286;18.756;2023-11-18T00:04:49;100612.97;;;3.86;79.98
79463;BME280;68931;47.286;18.756;2023-11-18T00:05:21;100608.72;;;3.84;80.17
79463;BME280;68931;47.286;18.756;2023-11-18T00:05:55;100621.53;;;3.88;80.16
79463;BME280;68931;47.286;18.756;2023-11-18T00:06:27;100599.38;;;3.78;80.06
79463;BME280;68931;47.286;18.756;2023-11-18T00:06:59;100624.19;;;3.87;80.29
79463;BME280;68931;47.286;18.756;2023-11-18T00:07:31;100581.56;;;3.64;80.37
79463;BME280;68931;47.286;18.756;2023-11-18T00:08:07;100615.41;;;3.91;79.49
79463;BME280;68931;47.286;18.756;2023-11-18T00:08:39;100620.59;;;3.91;79.50
79463;BME280;68931;47.286;18.756;2023-11-18T00:09:11;100585.78;;;3.68;79.77
79463;BME280;68931;47.286;18.756;2023-11-18T00:09:46;100626.69;;;3.90;80.07
79463;BME280;68931;47.286;18.756;2023-11-18T00:10:21;100607.84;;;3.83;79.73
79463;BME280;68931;47.286;18.756;2023-11-18T00:10:53;100624.94;;;3.90;79.24
79463;BME280;68931;47.286;18.756;2023-11-18T00:11:25;100616.31;;;3.90;79.26
79463;BME280;68931;47.286;18.756;2023-11-18T00:11:58;100623.22;;;3.91;79.42
79463;BME280;68931;47.286;18.756;2023-11-18T00:12:30;100609.56;;;3.84;80.35
79463;BME280;68931;47.286;18.756;2023-11-18T00:13:02;100622.28;;;3.93;79.06
79463;BME280;68931;47.286;18.756;2023-11-18T00:13:35;100624.94;;;3.90;79.40
79463;BME280;68931;47.286;18.756;2023-11-18T00:14:10;100620.00;;;3.81;79.65
79463;BME280;68931;47.286;18.756;2023-11-18T00:14:43;100619.09;;;3.84;79.80
79463;BME280;68931;47.286;18.756;2023-11-18T00:15:17;100605.31;;;3.82;79.17
79463;BME280;68931;47.286;18.756;2023-11-18T00:15:49;100623.25;;;3.89;79.29
79463;BME280;68931;47.286;18.756;2023-11-18T00:16:21;100630.06;;;3.93;79.13
79463;BME280;68931;47.286;18.756;2023-11-18T00:16:54;100619.72;;;3.92;79.97
79463;BME280;68931;47.286;18.756;2023-11-18T00:17:26;100629.22;;;3.93;79.81
79463;BME280;68931;47.286;18.756;2023-11-18T00:17:58;100625.88;;;3.88;79.53
79463;BME280;68931;47.286;18.756;2023-11-18T00:18:30;100611.34;;;3.82;79.01
79463;BME280;68931;47.286;18.756;2023-11-18T00:19:03;100617.38;;;3.83;79.88
79463;BME280;68931;47.286;18.756;2023-11-18T00:19:39;100617.25;;;3.87;79.15
79463;BME280;68931;47.286;18.756;2023-11-18T00:20:11;100607.19;;;3.76;79.95
79463;BME280;68931;47.286;18.756;2023-11-18T00:20:51;100607.03;;;3.81;79.02
79463;BME280;68931;47.286;18.756;2023-11-18T00:21:23;100624.03;;;3.93;79.83
79463;BME280;68931;47.286;18.756;2023-11-18T00:21:55;100618.88;;;3.91;80.01
79463;BME280;68931;47.286;18.756;2023-11-18T00:22:33;100614.59;;;3.89;79.59
79463;BME280;68931;47.286;18.756;2023-11-18T00:23:05;100618.06;;;3.89;79.64
79463;BME280;68931;47.286;18.756;2023-11-18T00:23:37;100601.03;;;3.79;79.09
79463;BME280;68931;47.286;18.756;2023-11-18T00:24:09;100618.09;;;3.88;79.84
79463;BME280;68931;47.286;18.756;2023-11-18T00:24:43;100608.56;;;3.88;79.32
79463;BME280;68931;47.286;18.756;2023-11-18T00:25:17;100608.53;;;3.90;80.08
79463;BME280;68931;47.286;18.756;2023-11-18T00:25:50;100607.72;;;3.88;79.11
79463;BME280;68931;47.286;18.756;2023-11-18T00:26:24;100600.94;;;3.84;79.11
79463;BME280;68931;47.286;18.756;2023-11-18T00:26:57;100594.22;;;3.76;79.64
79463;BME280;68931;47.286;18.756;2023-11-18T00:27:29;100585.56;;;3.76;79.58
79463;BME280;68931;47.286;18.756;2023-11-18T00:28:02;100608.66;;;3.85;79.50
79463;BME280;68931;47.286;18.756;2023-11-18T00:28:34;100617.25;;;3.87;79.05
79463;BME280;68931;47.286;18.756;2023-11-18T00:29:06;100613.81;;;3.87;78.99
79463;BME280;68931;47.286;18.756;2023-11-18T00:29:39;100605.38;;;3.78;79.65
79463;BME280;68931;47.286;18.756;2023-11-18T00:30:14;100617.34;;;3.84;79.27
79463;BME280;68931;47.286;18.756;2023-11-18T00:30:46;100629.28;;;3.90;79.63
79463;BME280;68931;47.286;18.756;2023-11-18T00:31:18;100590.84;;;3.73;79.14
79463;BME280;68931;47.286;18.756;2023-11-18T00:31:50;100616.50;;;3.84;78.78
79463;BME280;68931;47.286;18.756;2023-11-18T00:32:22;100586.75;;;3.64;79.28
79463;BME280;68931;47.286;18.756;2023-11-18T00:32:54;100613.88;;;3.85;79.05
79463;BME280;68931;47.286;18.756;2023-11-18T00:33:26;100619.09;;;3.84;79.49
79463;BME280;68931;47.286;18.756;2023-11-18T00:33:59;100629.38;;;3.87;79.58
79463;BME280;68931;47.286;18.756;2023-11-18T00:34:31;100618.31;;;3.80;79.18
79463;BME280;68931;47.286;18.756;2023-11-18T00:35:03;100626.84;;;3.85;79.53
79463;BME280;68931;47.286;18.756;2023-11-18T00:35:38;100634.59;;;3.87;79.14
79463;BME280;68931;47.286;18.756;2023-11-18T00:36:10;100646.56;;;3.91;80.00
79463;BME280;68931;47.286;18.756;2023-11-18T00:36:41;100633.81;;;3.83;79.55
79463;BME280;68931;47.286;18.756;2023-11-18T00:37:14;100647.50;;;3.88;79.03
79463;BME280;68931;47.286;18.756;2023-11-18T00:37:46;100628.47;;;3.88;79.45
79463;BME280;68931;47.286;18.756;2023-11-18T00:38:18;100643.19;;;3.87;79.65
79463;BME280;68931;47.286;18.756;2023-11-18T00:38:50;100648.34;;;3.89;78.88
79463;BME280;68931;47.286;18.756;2023-11-18T00:39:22;100651.75;;;3.91;79.62
79463;BME280;68931;47.286;18.756;2023-11-18T00:39:54;100644.09;;;3.86;79.65
79463;BME280;68931;47.286;18.756;2023-11-18T00:40:26;100641.50;;;3.86;79.93
79463;BME280;68931;47.286;18.756;2023-11-18T00:41:01;100663.91;;;3.89;79.64
79463;BME280;68931;47.286;18.756;2023-11-18T00:41:33;100650.91;;;3.90;80.03
79463;BME280;68931;47.286;18.756;2023-11-18T00:42:05;100662.19;;;3.88;78.85
79463;BME280;68931;47.286;18.756;2023-11-18T00:42:37;100649.31;;;3.86;79.17
79463;BME280;68931;47.286;18.756;2023-11-18T00:43:12;100650.22;;;3.84;79.38
79463;BME280;68931;47.286;18.756;2023-11-18T00:43:44;100638.22;;;3.79;78.93
79463;BME280;68931;47.286;18.756;2023-11-18T00:44:16;100669.09;;;3.89;79.68
79463;BME280;68931;47.286;18.756;2023-11-18T00:44:49;100662.31;;;3.85;78.70
79463;BME280;68931;47.286;18.756;2023-11-18T00:45:21;100667.28;;;3.92;79.33
79463;BME280;68931;47.286;18.756;2023-11-18T00:45:54;100659.50;;;3.92;78.55
79463;BME280;68931;47.286;18.756;2023-11-18T00:46:26;100669.00;;;3.93;79.42
79463;BME280;68931;47.286;18.756;2023-11-18T00:46:58;100649.41;;;3.82;78.89
79463;BME280;68931;47.286;18.756;2023-11-18T00:47:30;100647.66;;;3.82;78.87
79463;BME280;68931;47.286;18.756;2023-11-18T00:48:02;100640.78;;;3.81;79.34
79463;BME280;68931;47.286;18.756;2023-11-18T00:48:36;100668.19;;;3.91;78.75
79463;BME280;68931;47.286;18.756;2023-11-18T00:49:08;100655.34;;;3.87;79.30
79463;BME280;68931;47.286;18.756;2023-11-18T00:49:40;100662.19;;;3.88;78.71
79463;BME280;68931;47.286;18.756;2023-11-18T00:50:12;100662.19;;;3.88;78.94
79463;BME280;68931;47.286;18.756;2023-11-18T00:50:47;100665.75;;;3.85;78.83
79463;BME280;68931;47.286;18.756;2023-11-18T00:51:19;100673.38;;;3.91;79.33
79463;BME280;68931;47.286;18.756;2023-11-18T00:51:51;100669.03;;;3.92;78.81
79463;BME280;68931;47.286;18.756;2023-11-18T00:52:23;100658.97;;;3.79;78.69
79463;BME280;68931;47.286;18.756;2023-11-18T00:52:56;100672.59;;;3.88;79.63
79463;BME280;68931;47.286;18.756;2023-11-18T00:53:28;100680.44;;;3.86;78.99
79463;BME280;68931;47.286;18.756;2023-11-18T00:54:01;100682.06;;;3.89;79.19
79463;BME280;68931;47.286;18.756;2023-11-18T00:54:35;100666.53;;;3.87;79.32
79463;BME280;68931;47.286;18.756;2023-11-18T00:55:11;100679.59;;;3.86;78.62
79463;BME280;68931;47.286;18.756;2023-11-18T00:55:43;100677.00;;;3.86;79.14
79463;BME280;68931;47.286;18.756;2023-11-18T00:56:17;100673.53;;;3.85;79.13
79463;BME280;68931;47.286;18.756;2023-11-18T00:56:49;100664.06;;;3.84;79.31
79463;BME280;68931;47.286;18.756;2023-11-18T00:57:21;100661.75;;;3.73;79.26
79463;BME280;68931;47.286;18.756;2023-11-18T00:57:53;100615.50;;;3.57;79.02
79463;BME280;68931;47.286;18.756;2023-11-18T00:58:28;100666.81;;;3.78;79.06
79463;BME280;68931;47.286;18.756;2023-11-18T00:59:00;100681.41;;;3.82;79.45
79463;BME280;68931;47.286;18.756;2023-11-18T00:59:33;100663.53;;;3.71;79.69
79463;BME280;68931;47.286;18.756;2023-11-18T01:00:11;100681.44;;;3.81;79.72
79463;BME280;68931;47.286;18.756;2023-11-18T01:00:45;100671.31;;;3.71;79.10
79463;BME280;68931;47.286;18.756;2023-11-18T01:01:17;100680.69;;;3.77;78.93
79463;BME280;68931;47.286;18.756;2023-11-18T01:01:50;100680.69;;;3.77;79.66
79463;BME280;68931;47.286;18.756;2023-11-18T01:02:22;100681.56;;;3.76;79.25
79463;BME280;68931;47.286;18.756;2023-11-18T01:02:56;100693.47;;;3.83;79.53
79463;BME280;68931;47.286;18.756;2023-11-18T01:03:29;100680.53;;;3.82;78.64
79463;BME280;68931;47.286;18.756;2023-11-18T01:04:02;100674.69;;;3.75;79.04
79463;BME280;68931;47.286;18.756;2023-11-18T01:04:34;100670.44;;;3.71;78.99
79463;BME280;68931;47.286;18.756;2023-11-18T01:05:06;100687.56;;;3.78;79.14
79463;BME280;68931;47.286;18.756;2023-11-18T01:05:44;100677.34;;;3.72;79.58
79463;BME280;68931;47.286;18.756;2023-11-18T01:06:18;100701.28;;;3.83;79.24
79463;BME280;68931;47.286;18.756;2023-11-18T01:06:50;100696.16;;;3.80;79.51
79463;BME280;68931;47.286;18.756;2023-11-18T01:07:26;100696.94;;;3.84;79.35
79463;BME280;68931;47.286;18.756;2023-11-18T01:07:58;100698.63;;;3.85;78.77
79463;BME280;68931;47.286;18.756;2023-11-18T01:08:30;100683.22;;;3.78;79.34
79463;BME280;68931;47.286;18.756;2023-11-18T01:09:02;100673.06;;;3.69;78.88
79463;BME280;68931;47.286;18.756;2023-11-18T01:09:36;100689.22;;;3.81;79.00
79463;BME280;68931;47.286;18.756;2023-11-18T01:10:11;100671.31;;;3.71;79.04
79463;BME280;68931;47.286;18.756;2023-11-18T01:10:43;100680.69;;;3.77;79.75
79463;BME280;68931;47.286;18.756;2023-11-18T01:11:16;100703.03;;;3.81;79.04
79463;BME280;68931;47.286;18.756;2023-11-18T01:11:53;100699.59;;;3.81;78.47
79463;BME280;68931;47.286;18.756;2023-11-18T01:12:25;100670.56;;;3.68;79.51
79463;BME280;68931;47.286;18.756;2023-11-18T01:12:57;100707.34;;;3.82;78.94
79463;BME280;68931;47.286;18.756;2023-11-18T01:13:30;100701.28;;;3.83;79.48
79463;BME280;68931;47.286;18.756;2023-11-18T01:14:03;100703.91;;;3.82;79.15
79463;BME280;68931;47.286;18.756;2023-11-18T01:14:36;100689.47;;;3.71;79.39
79463;BME280;68931;47.286;18.756;2023-11-18T01:15:10;100687.69;;;3.73;79.56
79463;BME280;68931;47.286;18.756;2023-11-18T01:15:44;100695.41;;;3.76;79.03
79463;BME280;68931;47.286;18.756;2023-11-18T01:16:19;100690.09;;;3.79;79.66
79463;BME280;68931;47.286;18.756;2023-11-18T01:16:51;100693.69;;;3.75;79.65
79463;BME280;68931;47.286;18.756;2023-11-18T01:17:24;100707.56;;;3.74;79.71
79463;BME280;68931;47.286;18.756;2023-11-18T01:17:56;100690.28;;;3.73;79.44
79463;BME280;68931;47.286;18.756;2023-11-18T01:18:28;100703.19;;;3.76;79.42
79463;BME280;68931;47.286;18.756;2023-11-18T01:19:01;100706.56;;;3.78;79.14
79463;BME280;68931;47.286;18.756;2023-11-18T01:19:33;100687.88;;;3.66;79.51
79463;BME280;68931;47.286;18.756;2023-11-18T01:20:08;100695.53;;;3.70;79.69
79463;BME280;68931;47.286;18.756;2023-11-18T01:20:46;100690.31;;;3.72;79.42
79463;BME280;68931;47.286;18.756;2023-11-18T01:21:18;100698.09;;;3.72;79.39
79463;BME280;68931;47.286;18.756;2023-11-18T01:21:50;100703.41;;;3.67;79.90
79463;BME280;68931;47.286;18.756;2023-11-18T01:22:27;100701.53;;;3.72;80.03
79463;BME280;68931;47.286;18.756;2023-11-18T01:23:02;100705.00;;;3.73;79.68
79463;BME280;68931;47.286;18.756;2023-11-18T01:23:35;100713.59;;;3.75;79.77
79463;BME280;68931;47.286;18.756;2023-11-18T01:24:08;100669.31;;;3.49;79.84
79463;BME280;68931;47.286;18.756;2023-11-18T01:24:40;100717.84;;;3.77;79.49
79463;BME280;68931;47.286;18.756;2023-11-18T01:25:12;100694.81;;;3.65;80.01
79463;BME280;68931;47.286;18.756;2023-11-18T01:25:44;100717.94;;;3.74;80.34
79463;BME280;68931;47.286;18.756;2023-11-18T01:26:21;100713.88;;;3.64;80.44
79463;BME280;68931;47.286;18.756;2023-11-18T01:26:55;100715.50;;;3.68;79.88
79463;BME280;68931;47.286;18.756;2023-11-18T01:27:27;100724.91;;;3.72;79.74
79463;BME280;68931;47.286;18.756;2023-11-18T01:27:59;100719.94;;;3.63;79.92
79463;BME280;68931;47.286;18.756;2023-11-18T01:28:33;100695.88;;;3.58;80.55
79463;BME280;68931;47.286;18.756;2023-11-18T01:29:09;100726.63;;;3.72;79.58
79463;BME280;68931;47.286;18.756;2023-11-18T01:29:41;100721.53;;;3.69;80.65
79463;BME280;68931;47.286;18.756;2023-11-18T01:30:14;100705.47;;;3.55;79.51
79463;BME280;68931;47.286;18.756;2023-11-18T01:30:46;100720.84;;;3.61;80.73
79463;BME280;68931;47.286;18.756;2023-11-18T01:31:18;100721.66;;;3.64;79.46
79463;BME280;68931;47.286;18.756;2023-11-18T01:31:50;100735.25;;;3.74;80.40
79463;BME280;68931;47.286;18.756;2023-11-18T01:32:24;100731.84;;;3.70;80.06
79463;BME280;68931;47.286;18.756;2023-11-18T01:33:02;100690.09;;;3.47;80.07
79463;BME280;68931;47.286;18.756;2023-11-18T01:33:39;100699.59;;;3.48;79.87
79463;BME280;68931;47.286;18.756;2023-11-18T01:34:12;100731.06;;;3.68;80.30
79463;BME280;68931;47.286;18.756;2023-11-18T01:34:44;100731.06;;;3.68;80.19
79463;BME280;68931;47.286;18.756;2023-11-18T01:35:22;100728.53;;;3.65;80.20
79463;BME280;68931;47.286;18.756;2023-11-18T01:35:58;100718.13;;;3.67;79.82
79463;BME280;68931;47.286;18.756;2023-11-18T01:36:30;100721.53;;;3.69;79.76
79463;BME280;68931;47.286;18.756;2023-11-18T01:37:03;100727.56;;;3.69;79.61
79463;BME280;68931;47.286;18.756;2023-11-18T01:37:36;100725.88;;;3.68;80.29
79463;BME280;68931;47.286;18.756;2023-11-18T01:38:08;100711.19;;;3.67;79.97
79463;BME280;68931;47.286;18.756;2023-11-18T01:38:40;100716.38;;;3.67;79.91
79463;BME280;68931;47.286;18.756;2023-11-18T01:39:12;100728.47;;;3.68;79.90
79463;BME280;68931;47.286;18.756;2023-11-18T01:39:45;100705.38;;;3.59;80.25
79463;BME280;68931;47.286;18.756;2023-11-18T01:40:17;100725.06;;;3.66;80.30
79463;BME280;68931;47.286;18.756;2023-11-18T01:40:58;100712.25;;;3.60;79.93
79463;BME280;68931;47.286;18.756;2023-11-18T01:41:32;100708.91;;;3.55;80.53
79463;BME280;68931;47.286;18.756;2023-11-18T01:42:04;100723.34;;;3.65;80.49
79463;BME280;68931;47.286;18.756;2023-11-18T01:42:36;100714.03;;;3.58;80.47
79463;BME280;68931;47.286;18.756;2023-11-18T01:43:09;100716.59;;;3.60;80.42
79463;BME280;68931;47.286;18.756;2023-11-18T01:43:47;100707.19;;;3.54;80.59
79463;BME280;68931;47.286;18.756;2023-11-18T01:44:19;100725.13;;;3.63;80.13
79463;BME280;68931;47.286;18.756;2023-11-18T01:44:51;100718.38;;;3.58;80.01
79463;BME280;68931;47.286;18.756;2023-11-18T01:45:23;100672.44;;;3.27;80.30
79463;BME280;68931;47.286;18.756;2023-11-18T01:46:03;100708.16;;;3.52;80.26
79463;BME280;68931;47.286;18.756;2023-11-18T01:46:36;100720.84;;;3.61;80.86
79463;BME280;68931;47.286;18.756;2023-11-18T01:47:09;100718.34;;;3.59;80.71
79463;BME280;68931;47.286;18.756;2023-11-18T01:47:44;100712.53;;;3.50;80.76
79463;BME280;68931;47.286;18.756;2023-11-18T01:48:17;100709.81;;;3.53;80.23
79463;BME280;68931;47.286;18.756;2023-11-18T01:48:50;100700.50;;;3.46;80.03
79463;BME280;68931;47.286;18.756;2023-11-18T01:49:23;100713.06;;;3.61;80.14
79463;BME280;68931;47.286;18.756;2023-11-18T01:49:56;100700.25;;;3.56;80.45
79463;BME280;68931;47.286;18.756;2023-11-18T01:50:28;100705.47;;;3.55;80.81
79463;BME280;68931;47.286;18.756;2023-11-18T01:51:05;100708.16;;;3.52;80.83
79463;BME280;68931;47.286;18.756;2023-11-18T01:51:43;100722.69;;;3.57;80.57
79463;BME280;68931;47.286;18.756;2023-11-18T01:52:17;100722.75;;;3.54;80.85
79463;BME280;68931;47.286;18.756;2023-11-18T01:52:52;100722.66;;;3.59;80.88
79463;BME280;68931;47.286;18.756;2023-11-18T01:53:25;100700.66;;;3.39;80.20
79463;BME280;68931;47.286;18.756;2023-11-18T01:53:59;100724.50;;;3.54;80.54
79463;BME280;68931;47.286;18.756;2023-11-18T01:54:32;100727.91;;;3.56;80.77
79463;BME280;68931;47.286;18.756;2023-11-18T01:55:05;100724.47;;;3.55;81.60
79463;BME280;68931;47.286;18.756;2023-11-18T01:55:38;100723.66;;;3.53;81.25
79463;BME280;68931;47.286;18.756;2023-11-18T01:56:12;100723.56;;;3.58;80.83
79463;BME280;68931;47.286;18.756;2023-11-18T01:56:48;100727.06;;;3.55;80.78
79463;BME280;68931;47.286;18.756;2023-11-18T01:57:21;100733.97;;;3.56;80.20
79463;BME280;68931;47.286;18.756;2023-11-18T01:57:53;100707.41;;;3.47;80.82
79463;BME280;68931;47.286;18.756;2023-11-18T01:58:25;100714.22;;;3.51;80.70
79463;BME280;68931;47.286;18.756;2023-11-18T01:58:59;100708.25;;;3.47;81.02
79463;BME280;68931;47.286;18.756;2023-11-18T01:59:33;100718.53;;;3.52;80.43
79463;BME280;68931;47.286;18.756;2023-11-18T02:00:06;100728.78;;;3.56;80.21
79463;BME280;68931;47.286;18.756;2023-11-18T02:00:42;100703.06;;;3.47;80.49
79463;BME280;68931;47.286;18.756;2023-11-18T02:01:16;100720.97;;;3.58;80.57
79463;BME280;68931;47.286;18.756;2023-11-18T02:01:51;100718.56;;;3.50;80.45
79463;BME280;68931;47.286;18.756;2023-11-18T02:02:26;100719.25;;;3.57;80.45
79463;BME280;68931;47.286;18.756;2023-11-18T02:02:58;100715.84;;;3.55;81.07
79463;BME280;68931;47.286;18.756;2023-11-18T02:03:39;100713.28;;;3.53;81.04
79463;BME280;68931;47.286;18.756;2023-11-18T02:04:14;100680.16;;;3.30;80.33
79463;BME280;68931;47.286;18.756;2023-11-18T02:04:47;100716.69;;;3.55;81.04
79463;BME280;68931;47.286;18.756;2023-11-18T02:05:19;100714.97;;;3.54;80.47
79463;BME280;68931;47.286;18.756;2023-11-18T02:05:53;100707.38;;;3.48;80.40
79463;BME280;68931;47.286;18.756;2023-11-18T02:06:28;100713.22;;;3.56;81.10
79463;BME280;68931;47.286;18.756;2023-11-18T02:07:01;100697.91;;;3.46;80.98
79463;BME280;68931;47.286;18.756;2023-11-18T02:07:36;100720.94;;;3.59;81.11
79463;BME280;68931;47.286;18.756;2023-11-18T02:08:10;100712.31;;;3.57;81.22
79463;BME280;68931;47.286;18.756;2023-11-18T02:08:45;100706.56;;;3.45;81.08
79463;BME280;68931;47.286;18.756;2023-11-18T02:09:19;100665.53;;;3.28;81.17
79463;BME280;68931;47.286;18.756;2023-11-18T02:10:04;100720.16;;;3.54;80.85
79463;BME280;68931;47.286;18.756;2023-11-18T02:11:05;100686.00;;;3.38;80.93
79463;BME280;68931;47.286;18.756;2023-11-18T02:11:58;100709.78;;;3.54;81.25
79463;BME280;68931;47.286;18.756;2023-11-18T02:13:24;100711.56;;;3.52;81.89
79463;BME280;68931;47.286;18.756;2023-11-18T02:14:05;100697.19;;;3.40;81.97
79463;BME280;68931;47.286;18.756;2023-11-18T02:14:45;100687.81;;;3.35;81.48
79463;BME280;68931;47.286;18.756;2023-11-18T02:15:18;100711.63;;;3.51;82.30
79463;BME280;68931;47.286;18.756;2023-11-18T02:15:53;100716.75;;;3.52;81.91
79463;BME280;68931;47.286;18.756;2023-11-18T02:16:30;100711.66;;;3.49;82.01
79463;BME280;68931;47.286;18.756;2023-11-18T02:17:05;100709.19;;;3.43;81.89
79463;BME280;68931;47.286;18.756;2023-11-18T02:17:41;100719.34;;;3.52;81.86
79463;BME280;68931;47.286;18.756;2023-11-18T02:18:19;100703.13;;;3.44;82.02
79463;BME280;68931;47.286;18.756;2023-11-18T02:18:54;100715.13;;;3.50;81.52
79463;BME280;68931;47.286;18.756;2023-11-18T02:19:29;100673.28;;;3.28;81.72
79463;BME280;68931;47.286;18.756;2023-11-18T02:20:02;100689.59;;;3.33;81.80
79463;BME280;68931;47.286;18.756;2023-11-18T02:20:39;100712.53;;;3.50;82.30
79463;BME280;68931;47.286;18.756;2023-11-18T02:21:14;100691.19;;;3.38;81.60
79463;BME280;68931;47.286;18.756;2023-11-18T02:21:48;100720.28;;;3.51;82.43
79463;BME280;68931;47.286;18.756;2023-11-18T02:22:22;100699.66;;;3.45;81.72
79463;BME280;68931;47.286;18.756;2023-11-18T02:22:54;100709.91;;;3.51;82.27
79463;BME280;68931;47.286;18.756;2023-11-18T02:23:27;100713.28;;;3.53;81.67
79463;BME280;68931;47.286;18.756;2023-11-18T02:23:59;100692.84;;;3.41;81.78
79463;BME280;68931;47.286;18.756;2023-11-18T02:24:32;100703.13;;;3.44;82.73
79463;BME280;68931;47.286;18.756;2023-11-18T02:25:09;100714.25;;;3.49;82.55
79463;BME280;68931;47.286;18.756;2023-11-18T02:25:50;100717.72;;;3.50;82.71
79463;BME280;68931;47.286;18.756;2023-11-18T02:26:25;100720.28;;;3.51;82.10
79463;BME280;68931;47.286;18.756;2023-11-18T02:26:58;100714.25;;;3.49;82.80
79463;BME280;68931;47.286;18.756;2023-11-18T02:27:31;100701.38;;;3.45;82.53
79463;BME280;68931;47.286;18.756;2023-11-18T02:28:03;100703.91;;;3.48;81.74
79463;BME280;68931;47.286;18.756;2023-11-18T02:28:36;100719.44;;;3.49;82.07
79463;BME280;68931;47.286;18.756;2023-11-18T02:29:08;100691.22;;;3.37;82.58
79463;BME280;68931;47.286;18.756;2023-11-18T02:29:43;100719.41;;;3.51;82.36
79463;BME280;68931;47.286;18.756;2023-11-18T02:30:16;100710.78;;;3.50;82.36
79463;BME280;68931;47.286;18.756;2023-11-18T02:30:56;100718.56;;;3.50;82.31
79463;BME280;68931;47.286;18.756;2023-11-18T02:31:33;100693.81;;;3.37;82.53
79463;BME280;68931;47.286;18.756;2023-11-18T02:32:15;100717.72;;;3.50;81.90
79463;BME280;68931;47.286;18.756;2023-11-18T02:33:11;100724.66;;;3.48;83.11
79463;BME280;68931;47.286;18.756;2023-11-18T02:34:02;100720.56;;;3.39;82.87
79463;BME280;68931;47.286;18.756;2023-11-18T02:34:45;100729.81;;;3.49;81.89
79463;BME280;68931;47.286;18.756;2023-11-18T02:35:48;100717.84;;;3.44;82.83
79463;BME280;68931;47.286;18.756;2023-11-18T02:36:26;100729.88;;;3.46;82.87
79463;BME280;68931;47.286;18.756;2023-11-18T02:37:08;100733.41;;;3.44;82.16
79463;BME280;68931;47.286;18.756;2023-11-18T02:37:47;100728.22;;;3.44;82.69
79463;BME280;68931;47.286;18.756;2023-11-18T02:38:27;100729.06;;;3.44;82.43
79463;BME280;68931;47.286;18.756;2023-11-18T02:39:09;100744.56;;;3.47;82.53
79463;BME280;68931;47.286;18.756;2023-11-18T02:39:43;100739.50;;;3.43;82.66
79463;BME280;68931;47.286;18.756;2023-11-18T02:40:20;100741.28;;;3.40;82.26
79463;BME280;68931;47.286;18.756;2023-11-18T02:40:58;100715.59;;;3.30;82.38
79463;BME280;68931;47.286;18.756;2023-11-18T02:41:32;100743.84;;;3.42;82.73
79463;BME280;68931;47.286;18.756;2023-11-18T02:42:04;100724.22;;;3.30;82.24
79463;BME280;68931;47.286;18.756;2023-11-18T02:42:42;100745.50;;;3.43;82.04
79463;BME280;68931;47.286;18.756;2023-11-18T02:43:15;100729.28;;;3.35;82.61
79463;BME280;68931;47.286;18.756;2023-11-18T02:43:50;100742.16;;;3.39;82.63
79463;BME280;68931;47.286;18.756;2023-11-18T02:44:23;100733.56;;;3.37;82.04
79463;BME280;68931;47.286;18.756;2023-11-18T02:44:57;100733.69;;;3.33;82.89
79463;BME280;68931;47.286;18.756;2023-11-18T02:45:32;100708.03;;;3.21;82.51
79463;BME280;68931;47.286;18.756;2023-11-18T02:46:07;100746.44;;;3.42;83.02
79463;BME280;68931;47.286;18.756;2023-11-18T02:46:40;100736.97;;;3.39;82.33
79463;BME280;68931;47.286;18.756;2023-11-18T02:47:16;100740.38;;;3.42;82.84
79463;BME280;68931;47.286;18.756;2023-11-18T02:47:48;100723.44;;;3.27;82.46
79463;BME280;68931;47.286;18.756;2023-11-18T02:48:26;100709.81;;;3.19;82.14
79463;BME280;68931;47.286;18.756;2023-11-18T02:48:59;100742.22;;;3.36;82.78
79463;BME280;68931;47.286;18.756;2023-11-18T02:49:32;100752.72;;;3.32;83.24
79463;BME280;68931;47.286;18.756;2023-11-18T02:50:06;100743.22;;;3.31;82.45
79463;BME280;68931;47.286;18.756;2023-11-18T02:50:42;100733.78;;;3.28;83.29
79463;BME280;68931;47.286;18.756;2023-11-18T02:51:14;100743.16;;;3.34;83.42
79463;BME280;68931;47.286;18.756;2023-11-18T02:51:48;100738.03;;;3.31;82.26
79463;BME280;68931;47.286;18.756;2023-11-18T02:52:20;100731.28;;;3.25;82.79
79463;BME280;68931;47.286;18.756;2023-11-18T02:52:53;100729.66;;;3.20;82.78
79463;BME280;68931;47.286;18.756;2023-11-18T02:53:25;100734.69;;;3.26;82.75
79463;BME280;68931;47.286;18.756;2023-11-18T02:54:00;100748.38;;;3.32;83.45
79463;BME280;68931;47.286;18.756;2023-11-18T02:54:32;100750.19;;;3.29;82.77
79463;BME280;68931;47.286;18.756;2023-11-18T02:55:05;100752.94;;;3.23;82.75
79463;BME280;68931;47.286;18.756;2023-11-18T02:55:40;100738.25;;;3.22;82.75
79463;BME280;68931;47.286;18.756;2023-11-18T02:56:14;100742.63;;;3.20;83.46
79463;BME280;68931;47.286;18.756;2023-11-18T02:56:46;100742.63;;;3.20;83.71
79463;BME280;68931;47.286;18.756;2023-11-18T02:57:18;100737.56;;;3.15;82.91
79463;BME280;68931;47.286;18.756;2023-11-18T02:57:50;100752.91;;;3.24;83.48
79463;BME280;68931;47.286;18.756;2023-11-18T02:58:23;100752.16;;;3.18;83.23
79463;BME280;68931;47.286;18.756;2023-11-18T02:58:58;100749.50;;;3.21;83.25
79463;BME280;68931;47.286;18.756;2023-11-18T02:59:30;100752.03;;;3.24;83.56